sensor_id;sensor_type;location;lat;lon;timestamp;pressure;altitude;pressure_sealevel;temperature;humidity
22753;BME280;11543;43.144;24.684;2023-04-02T00:09:01;97724.88;;;11.92;64.22
22753;BME280;11543;43.144;24.684;2023-04-02T00:11:36;97747.91;;;12.01;64.26
22753;BME280;11543;43.144;24.684;2023-04-02T00:14:15;97744.00;;;12.03;64.53
22753;BME280;11543;43.144;24.684;2023-04-02T00:16:42;97748.94;;;12.00;63.63
22753;BME280;11543;43.144;24.684;2023-04-02T00:19:18;97754.09;;;12.16;64.41
22753;BME280;11543;43.144;24.684;2023-04-02T00:21:48;97760.50;;;12.15;63.97
22753;BME280;11543;43.144;24.684;2023-04-02T00:24:16;97753.59;;;12.12;64.03
22753;BME280;11543;43.144;24.684;2023-04-02T00:26:44;97750.44;;;12.24;63.75
22753;BME280;11543;43.144;24.684;2023-04-02T00:29:12;97756.28;;;12.12;63.44
22753;BME280;11543;43.144;24.684;2023-04-02T00:31:43;97745.00;;;12.17;63.96
22753;BME280;11543;43.144;24.684;2023-04-02T00:34:26;97746.22;;;12.15;63.64
22753;BME280;11543;43.144;24.684;2023-04-02T00:36:53;97712.94;;;12.16;63.07
22753;BME280;11543;43.144;24.684;2023-04-02T00:39:29;97743.00;;;12.26;63.10
22753;BME280;11543;43.144;24.684;2023-04-02T00:41:58;97737.13;;;12.16;62.85
22753;BME280;11543;43.144;24.684;2023-04-02T00:44:38;97744.16;;;12.17;62.30
22753;BME280;11543;43.144;24.684;2023-04-02T00:47:22;97746.72;;;12.25;62.69
22753;BME280;11543;43.144;24.684;2023-04-02T00:49:49;97749.81;;;12.22;62.89
22753;BME280;11543;43.144;24.684;2023-04-02T00:52:22;97738.41;;;12.20;62.85
22753;BME280;11543;43.144;24.684;2023-04-02T00:55:00;97748.25;;;12.34;63.05
22753;BME280;11543;43.144;24.684;2023-04-02T00:57:27;97736.41;;;12.28;62.87
22753;BME280;11543;43.144;24.684;2023-04-02T00:59:55;97748.25;;;12.34;62.71
22753;BME280;11543;43.144;24.684;2023-04-02T01:22:04;97763.38;;;12.35;61.31
22753;BME280;11543;43.144;24.684;2023-04-02T01:24:34;97752.63;;;12.35;61.65
22753;BME280;11543;43.144;24.684;2023-04-02T01:27:16;97770.53;;;12.49;61.14
22753;BME280;11543;43.144;24.684;2023-04-02T01:29:52;97762.16;;;12.37;60.65
22753;BME280;11543;43.144;24.684;2023-04-02T01:32:23;97767.16;;;12.40;60.21
22753;BME280;11543;43.144;24.684;2023-04-02T01:34:51;97768.88;;;12.48;60.45
22753;BME280;11543;43.144;24.684;2023-04-02T01:37:47;97781.50;;;12.48;60.22
22753;BME280;11543;43.144;24.684;2023-04-02T01:40:36;97765.97;;;12.50;59.91
22753;BME280;11543;43.144;24.684;2023-04-02T01:45:50;97759.72;;;12.42;60.38
22753;BME280;11543;43.144;24.684;2023-04-02T01:48:21;97764.19;;;12.35;59.74
22753;BME280;11543;43.144;24.684;2023-04-02T01:50:50;97769.84;;;12.40;59.81
22753;BME280;11543;43.144;24.684;2023-04-02T01:53:18;97756.34;;;12.34;59.75
22753;BME280;11543;43.144;24.684;2023-04-02T01:55:56;97767.72;;;12.36;59.86
22753;BME280;11543;43.144;24.684;2023-04-02T01:58:26;97770.03;;;12.39;59.84
22753;BME280;11543;43.144;24.684;2023-04-02T02:03:22;97777.06;;;12.40;59.24
22753;BME280;11543;43.144;24.684;2023-04-02T02:05:47;97773.75;;;12.38;59.09
22753;BME280;11543;43.144;24.684;2023-04-02T02:08:26;97783.03;;;12.57;59.50
22753;BME280;11543;43.144;24.684;2023-04-02T02:10:54;97789.09;;;12.44;58.78
22753;BME280;11543;43.144;24.684;2023-04-02T02:13:20;97788.72;;;12.47;58.79
22753;BME280;11543;43.144;24.684;2023-04-02T02:15:46;97772.59;;;12.47;58.88
22753;BME280;11543;43.144;24.684;2023-04-02T02:18:12;97777.13;;;12.47;58.38
22753;BME280;11543;43.144;24.684;2023-04-02T02:20:38;97771.75;;;12.47;59.20
22753;BME280;11543;43.144;24.684;2023-04-02T02:23:04;97768.88;;;12.48;58.80
22753;BME280;11543;43.144;24.684;2023-04-02T02:25:33;97779.75;;;12.61;58.68
22753;BME280;11543;43.144;24.684;2023-04-02T02:28:32;97773.34;;;12.62;58.17
22753;BME280;11543;43.144;24.684;2023-04-02T02:31:06;97771.94;;;12.45;57.51
22753;BME280;11543;43.144;24.684;2023-04-02T02:33:48;97778.28;;;12.37;57.57
22753;BME280;11543;43.144;24.684;2023-04-02T02:36:41;97770.59;;;12.34;57.56
22753;BME280;11543;43.144;24.684;2023-04-02T02:39:19;97761.19;;;12.24;57.20
22753;BME280;11543;43.144;24.684;2023-04-02T02:44:31;97755.03;;;12.30;58.56
22753;BME280;11543;43.144;24.684;2023-04-02T02:47:27;97775.41;;;12.39;57.87
22753;BME280;11543;43.144;24.684;2023-04-02T02:49:58;97758.38;;;12.32;57.61
22753;BME280;11543;43.144;24.684;2023-04-02T02:52:27;97759.16;;;12.26;57.47
22753;BME280;11543;43.144;24.684;2023-04-02T02:55:05;97760.88;;;12.33;58.14
22753;BME280;11543;43.144;24.684;2023-04-02T02:57:38;97772.47;;;12.34;58.29
22753;BME280;11543;43.144;24.684;2023-04-02T03:00:06;97776.69;;;12.43;58.39
22753;BME280;11543;43.144;24.684;2023-04-02T03:02:36;97766.69;;;12.37;57.69
22753;BME280;11543;43.144;24.684;2023-04-02T03:05:03;97771.13;;;12.44;57.84
22753;BME280;11543;43.144;24.684;2023-04-02T03:07:30;97785.41;;;12.45;57.70
22753;BME280;11543;43.144;24.684;2023-04-02T03:13:07;97784.63;;;12.51;57.73
22753;BME280;11543;43.144;24.684;2023-04-02T03:18:25;97788.34;;;12.50;57.88
22753;BME280;11543;43.144;24.684;2023-04-02T03:23:26;97794.63;;;12.57;57.07
22753;BME280;11543;43.144;24.684;2023-04-02T03:26:18;97791.72;;;12.59;57.46
22753;BME280;11543;43.144;24.684;2023-04-02T03:28:58;97792.56;;;12.59;57.22
22753;BME280;11543;43.144;24.684;2023-04-02T03:31:37;97786.94;;;12.54;57.19
22753;BME280;11543;43.144;24.684;2023-04-02T03:34:24;97801.28;;;12.61;57.44
22753;BME280;11543;43.144;24.684;2023-04-02T03:36:59;97791.03;;;12.50;57.56
22753;BME280;11543;43.144;24.684;2023-04-02T03:39:38;97789.63;;;12.54;57.88
22753;BME280;11543;43.144;24.684;2023-04-02T03:44:50;97805.00;;;12.60;57.46
22753;BME280;11543;43.144;24.684;2023-04-02T03:47:33;97798.84;;;12.45;57.14
22753;BME280;11543;43.144;24.684;2023-04-02T03:50:19;97825.75;;;12.66;57.68
22753;BME280;11543;43.144;24.684;2023-04-02T03:52:56;97806.16;;;12.51;56.78
22753;BME280;11543;43.144;24.684;2023-04-02T03:55:39;97806.66;;;12.61;57.26
22753;BME280;11543;43.144;24.684;2023-04-02T05:15:40;97876.19;;;12.22;57.17
22753;BME280;11543;43.144;24.684;2023-04-02T05:18:16;97884.78;;;12.32;57.31
22753;BME280;11543;43.144;24.684;2023-04-02T05:20:59;97882.84;;;12.26;57.02
22753;BME280;11543;43.144;24.684;2023-04-02T05:23:33;97898.59;;;12.29;57.32
22753;BME280;11543;43.144;24.684;2023-04-02T05:26:07;97894.91;;;12.30;57.33
22753;BME280;11543;43.144;24.684;2023-04-02T05:28:40;97901.84;;;12.24;57.15
22753;BME280;11543;43.144;24.684;2023-04-02T05:31:53;97895.66;;;12.24;57.43
22753;BME280;11543;43.144;24.684;2023-04-02T05:33:57;97902.69;;;12.25;57.49
22753;BME280;11543;43.144;24.684;2023-04-02T05:36:29;97886.56;;;12.25;57.64
22753;BME280;11543;43.144;24.684;2023-04-02T05:38:56;97874.50;;;12.21;57.01
22753;BME280;11543;43.144;24.684;2023-04-02T05:41:34;97894.91;;;12.30;57.33
22753;BME280;11543;43.144;24.684;2023-04-02T05:46:35;97887.47;;;12.32;57.30
22753;BME280;11543;43.144;24.684;2023-04-02T05:49:06;97881.13;;;12.39;57.56
22753;BME280;11543;43.144;24.684;2023-04-02T05:51:35;97902.88;;;12.59;58.48
22753;BME280;11543;43.144;24.684;2023-04-02T05:54:05;97896.22;;;12.55;58.21
22753;BME280;11543;43.144;24.684;2023-04-02T05:56:45;97904.59;;;12.67;58.44
22753;BME280;11543;43.144;24.684;2023-04-02T05:59:26;97907.50;;;12.65;57.53
22753;BME280;11543;43.144;24.684;2023-04-02T06:02:09;97910.63;;;12.69;56.50
22753;BME280;11543;43.144;24.684;2023-04-02T06:05:04;97906.09;;;12.69;57.76
22753;BME280;11543;43.144;24.684;2023-04-02T06:07:51;97914.03;;;12.77;56.27
22753;BME280;11543;43.144;24.684;2023-04-02T06:10:29;97902.38;;;12.70;56.37
22753;BME280;11543;43.144;24.684;2023-04-02T06:12:58;97919.53;;;12.91;57.72
22753;BME280;11543;43.144;24.684;2023-04-02T06:15:30;97906.22;;;12.83;57.35
22753;BME280;11543;43.144;24.684;2023-04-02T06:18:04;97910.50;;;12.98;57.02
22753;BME280;11543;43.144;24.684;2023-04-02T06:20:31;97908.53;;;13.07;57.45
22753;BME280;11543;43.144;24.684;2023-04-02T06:23:08;97896.34;;;13.11;57.05
22753;BME280;11543;43.144;24.684;2023-04-02T06:25:39;97900.22;;;13.23;57.05
22753;BME280;11543;43.144;24.684;2023-04-02T06:28:13;97913.34;;;13.33;56.44
22753;BME280;11543;43.144;24.684;2023-04-02T06:30:41;97899.19;;;13.24;56.45
22753;BME280;11543;43.144;24.684;2023-04-02T06:33:10;97921.72;;;13.45;55.78
22753;BME280;11543;43.144;24.684;2023-04-02T06:35:40;97933.78;;;13.49;56.16
22753;BME280;11543;43.144;24.684;2023-04-02T06:38:12;97938.44;;;13.61;57.07
22753;BME280;11543;43.144;24.684;2023-04-02T06:40:43;97941.16;;;13.68;56.49
22753;BME280;11543;43.144;24.684;2023-04-02T06:46:05;97942.59;;;13.64;54.44
22753;BME280;11543;43.144;24.684;2023-04-02T06:48:32;97940.53;;;13.66;54.57
22753;BME280;11543;43.144;24.684;2023-04-02T06:51:06;97925.63;;;13.70;54.61
22753;BME280;11543;43.144;24.684;2023-04-02T06:53:39;97921.91;;;13.71;54.17
22753;BME280;11543;43.144;24.684;2023-04-02T06:56:17;97943.13;;;13.81;55.67
22753;BME280;11543;43.144;24.684;2023-04-02T06:58:44;97924.97;;;13.89;54.69
22753;BME280;11543;43.144;24.684;2023-04-02T07:01:30;97935.44;;;14.12;53.80
22753;BME280;11543;43.144;24.684;2023-04-02T07:03:58;97918.44;;;14.12;54.37
22753;BME280;11543;43.144;24.684;2023-04-02T07:06:24;97929.69;;;14.22;55.15
22753;BME280;11543;43.144;24.684;2023-04-02T07:08:49;97922.44;;;14.29;54.50
22753;BME280;11543;43.144;24.684;2023-04-02T07:11:16;97923.75;;;14.40;54.13
22753;BME280;11543;43.144;24.684;2023-04-02T07:13:43;97934.38;;;14.48;53.90
22753;BME280;11543;43.144;24.684;2023-04-02T07:16:20;97933.19;;;14.63;55.11
22753;BME280;11543;43.144;24.684;2023-04-02T07:18:47;97920.09;;;14.60;53.26
22753;BME280;11543;43.144;24.684;2023-04-02T07:21:12;97924.75;;;14.80;53.54
22753;BME280;11543;43.144;24.684;2023-04-02T07:23:38;97926.66;;;14.92;54.73
22753;BME280;11543;43.144;24.684;2023-04-02T07:26:05;97935.19;;;15.09;53.60
22753;BME280;11543;43.144;24.684;2023-04-02T07:28:32;97947.88;;;15.28;54.41
22753;BME280;11543;43.144;24.684;2023-04-02T07:31:07;97933.34;;;15.29;53.52
22753;BME280;11543;43.144;24.684;2023-04-02T07:33:39;97932.91;;;15.33;52.24
22753;BME280;11543;43.144;24.684;2023-04-02T07:36:05;97937.06;;;15.42;52.58
22753;BME280;11543;43.144;24.684;2023-04-02T07:38:31;97941.03;;;15.46;51.38
22753;BME280;11543;43.144;24.684;2023-04-02T07:40:56;97942.47;;;15.55;51.89
22753;BME280;11543;43.144;24.684;2023-04-02T07:43:22;97950.38;;;15.56;51.09
22753;BME280;11543;43.144;24.684;2023-04-02T07:45:49;97951.69;;;15.67;50.80
22753;BME280;11543;43.144;24.684;2023-04-02T07:48:14;97959.16;;;15.65;50.87
22753;BME280;11543;43.144;24.684;2023-04-02T07:50:40;97951.69;;;15.67;50.12
22753;BME280;11543;43.144;24.684;2023-04-02T07:53:06;97945.84;;;15.70;49.42
22753;BME280;11543;43.144;24.684;2023-04-02T07:55:33;97956.66;;;15.83;50.44
22753;BME280;11543;43.144;24.684;2023-04-02T07:57:58;97933.56;;;15.87;50.98
22753;BME280;11543;43.144;24.684;2023-04-02T08:00:25;97958.47;;;16.16;49.96
22753;BME280;11543;43.144;24.684;2023-04-02T08:02:52;97949.50;;;16.22;49.97
22753;BME280;11543;43.144;24.684;2023-04-02T08:05:18;97936.56;;;16.31;49.42
22753;BME280;11543;43.144;24.684;2023-04-02T08:07:58;97949.44;;;16.42;49.33
22753;BME280;11543;43.144;24.684;2023-04-02T08:10:27;97932.34;;;16.41;50.92
22753;BME280;11543;43.144;24.684;2023-04-02T08:12:52;97935.25;;;16.53;49.74
22753;BME280;11543;43.144;24.684;2023-04-02T08:15:18;97935.03;;;16.54;49.17
22753;BME280;11543;43.144;24.684;2023-04-02T08:17:44;97928.34;;;16.57;49.33
22753;BME280;11543;43.144;24.684;2023-04-02T08:20:19;97940.63;;;16.66;48.88
22753;BME280;11543;43.144;24.684;2023-04-02T08:22:46;97955.28;;;16.90;49.85
22753;BME280;11543;43.144;24.684;2023-04-02T08:25:16;97947.00;;;16.85;48.96
22753;BME280;11543;43.144;24.684;2023-04-02T08:27:45;97960.94;;;16.88;47.96
22753;BME280;11543;43.144;24.684;2023-04-02T08:30:15;97931.00;;;16.77;48.07
22753;BME280;11543;43.144;24.684;2023-04-02T08:32:44;97947.56;;;16.94;47.33
22753;BME280;11543;43.144;24.684;2023-04-02T08:35:12;97954.97;;;17.11;47.85
22753;BME280;11543;43.144;24.684;2023-04-02T08:37:48;97963.16;;;17.30;46.41
22753;BME280;11543;43.144;24.684;2023-04-02T08:43:21;97964.22;;;17.60;45.97
22753;BME280;11543;43.144;24.684;2023-04-02T08:48:46;97975.66;;;17.37;48.03
22753;BME280;11543;43.144;24.684;2023-04-02T08:51:24;97974.81;;;17.37;46.15
22753;BME280;11543;43.144;24.684;2023-04-02T08:54:27;97977.16;;;17.27;45.42
22753;BME280;11543;43.144;24.684;2023-04-02T08:59:41;97979.72;;;17.53;45.79
22753;BME280;11543;43.144;24.684;2023-04-02T09:02:32;97992.03;;;17.80;47.02
22753;BME280;11543;43.144;24.684;2023-04-02T09:05:04;97984.88;;;17.86;44.98
22753;BME280;11543;43.144;24.684;2023-04-02T09:07:32;97968.78;;;17.66;44.50
22753;BME280;11543;43.144;24.684;2023-04-02T09:09:59;97983.78;;;17.69;43.94
22753;BME280;11543;43.144;24.684;2023-04-02T09:12:27;97977.84;;;17.78;44.68
22753;BME280;11543;43.144;24.684;2023-04-02T09:17:47;97993.69;;;17.81;43.89
22753;BME280;11543;43.144;24.684;2023-04-02T09:20:26;97992.16;;;17.67;44.07
22753;BME280;11543;43.144;24.684;2023-04-02T09:22:53;97994.63;;;17.69;46.86
22753;BME280;11543;43.144;24.684;2023-04-02T09:25:23;97978.75;;;17.72;44.41
22753;BME280;11543;43.144;24.684;2023-04-02T09:27:53;97983.09;;;17.98;45.62
22753;BME280;11543;43.144;24.684;2023-04-02T09:30:26;97992.56;;;18.14;43.59
22753;BME280;11543;43.144;24.684;2023-04-02T09:33:03;97999.00;;;17.95;43.67
22753;BME280;11543;43.144;24.684;2023-04-02T09:35:53;97988.72;;;17.78;45.07
22753;BME280;11543;43.144;24.684;2023-04-02T09:38:24;97997.47;;;17.80;43.93
22753;BME280;11543;43.144;24.684;2023-04-02T09:43:25;97983.25;;;18.03;44.97
22753;BME280;11543;43.144;24.684;2023-04-02T09:46:04;97994.56;;;18.25;43.66
22753;BME280;11543;43.144;24.684;2023-04-02T09:53:37;97990.66;;;18.39;42.61
22753;BME280;11543;43.144;24.684;2023-04-02T09:58:43;97990.91;;;18.13;40.71
22753;BME280;11543;43.144;24.684;2023-04-02T10:01:27;97985.59;;;18.00;42.62
22753;BME280;11543;43.144;24.684;2023-04-02T10:03:54;97996.25;;;18.20;42.60
22753;BME280;11543;43.144;24.684;2023-04-02T10:06:20;97968.84;;;18.28;41.11
22753;BME280;11543;43.144;24.684;2023-04-02T10:08:46;97970.41;;;18.54;42.68
22753;BME280;11543;43.144;24.684;2023-04-02T10:11:16;97976.47;;;18.74;41.94
22753;BME280;11543;43.144;24.684;2023-04-02T10:14:05;97998.19;;;18.92;40.90
22753;BME280;11543;43.144;24.684;2023-04-02T10:16:41;97979.41;;;18.72;40.22
22753;BME280;11543;43.144;24.684;2023-04-02T10:19:24;97980.38;;;18.60;40.84
22753;BME280;11543;43.144;24.684;2023-04-02T10:21:53;97977.97;;;18.52;40.32
22753;BME280;11543;43.144;24.684;2023-04-02T10:24:19;97973.81;;;18.49;39.66
22753;BME280;11543;43.144;24.684;2023-04-02T10:40:59;97977.63;;;19.15;39.97
22753;BME280;11543;43.144;24.684;2023-04-02T10:46:53;97977.72;;;19.50;36.90
22753;BME280;11543;43.144;24.684;2023-04-02T10:52:38;97962.31;;;20.09;37.29
22753;BME280;11543;43.144;24.684;2023-04-02T10:55:24;97976.13;;;19.84;36.57
22753;BME280;11543;43.144;24.684;2023-04-02T10:57:52;97975.53;;;19.70;36.77
22753;BME280;11543;43.144;24.684;2023-04-02T11:05:51;97972.63;;;20.07;37.28
22753;BME280;11543;43.144;24.684;2023-04-02T11:08:22;97972.03;;;20.40;36.45
22753;BME280;11543;43.144;24.684;2023-04-02T11:10:55;97950.88;;;20.70;38.32
22753;BME280;11543;43.144;24.684;2023-04-02T11:13:36;97953.06;;;20.96;35.18
22753;BME280;11543;43.144;24.684;2023-04-02T11:16:05;97951.47;;;20.72;34.18
22753;BME280;11543;43.144;24.684;2023-04-02T11:18:33;97945.81;;;21.02;34.19
22753;BME280;11543;43.144;24.684;2023-04-02T11:21:04;97947.03;;;21.23;32.58
22753;BME280;11543;43.144;24.684;2023-04-02T11:23:36;97957.38;;;21.09;33.82
22753;BME280;11543;43.144;24.684;2023-04-02T11:26:33;97957.41;;;20.69;34.10
22753;BME280;11543;43.144;24.684;2023-04-02T11:31:42;97950.59;;;19.96;35.72
22753;BME280;11543;43.144;24.684;2023-04-02T11:37:28;97938.75;;;19.91;36.33
22753;BME280;11543;43.144;24.684;2023-04-02T11:39:56;97940.41;;;19.68;35.41
22753;BME280;11543;43.144;24.684;2023-04-02T11:42:31;97933.75;;;19.64;36.99
22753;BME280;11543;43.144;24.684;2023-04-02T11:45:00;97951.44;;;19.44;35.76
22753;BME280;11543;43.144;24.684;2023-04-02T11:47:28;97946.56;;;19.22;36.81
22753;BME280;11543;43.144;24.684;2023-04-02T11:52:32;97941.72;;;19.24;38.03
22753;BME280;11543;43.144;24.684;2023-04-02T12:09:45;97927.47;;;20.34;36.49
22753;BME280;11543;43.144;24.684;2023-04-02T12:12:22;97940.84;;;20.59;35.75
22753;BME280;11543;43.144;24.684;2023-04-02T12:14:55;97925.25;;;20.83;36.19
22753;BME280;11543;43.144;24.684;2023-04-02T12:22:37;97923.91;;;21.42;34.70
22753;BME280;11543;43.144;24.684;2023-04-02T12:28:17;97928.22;;;21.10;34.23
22753;BME280;11543;43.144;24.684;2023-04-02T12:30:44;97919.44;;;20.79;34.06
22753;BME280;11543;43.144;24.684;2023-04-02T12:33:38;97919.44;;;20.79;34.42
22753;BME280;11543;43.144;24.684;2023-04-02T12:36:13;97902.59;;;20.54;34.89
22753;BME280;11543;43.144;24.684;2023-04-02T12:38:50;97927.50;;;20.74;36.11
22753;BME280;11543;43.144;24.684;2023-04-02T12:41:31;97937.72;;;20.67;37.03
22753;BME280;11543;43.144;24.684;2023-04-02T12:43:59;97924.97;;;20.56;34.95
22753;BME280;11543;43.144;24.684;2023-04-02T12:46:26;97929.94;;;20.59;34.90
22753;BME280;11543;43.144;24.684;2023-04-02T12:49:32;97923.63;;;20.70;34.91
22753;BME280;11543;43.144;24.684;2023-04-02T12:51:49;97901.06;;;20.46;34.51
22753;BME280;11543;43.144;24.684;2023-04-02T12:54:17;97921.44;;;20.44;34.74
22753;BME280;11543;43.144;24.684;2023-04-02T12:56:45;97928.66;;;20.38;35.85
22753;BME280;11543;43.144;24.684;2023-04-02T12:59:55;97934.09;;;20.38;35.82
22753;BME280;11543;43.144;24.684;2023-04-02T13:02:27;97918.63;;;20.15;35.98
22753;BME280;11543;43.144;24.684;2023-04-02T13:04:57;97921.94;;;20.17;35.67
22753;BME280;11543;43.144;24.684;2023-04-02T13:07:32;97923.47;;;20.25;35.11
22753;BME280;11543;43.144;24.684;2023-04-02T13:09:59;97915.88;;;20.39;36.84
22753;BME280;11543;43.144;24.684;2023-04-02T13:12:32;97928.06;;;20.48;36.57
22753;BME280;11543;43.144;24.684;2023-04-02T13:15:01;97906.97;;;20.55;35.57
22753;BME280;11543;43.144;24.684;2023-04-02T13:18:36;97930.13;;;20.69;35.08
22753;BME280;11543;43.144;24.684;2023-04-02T13:21:21;97935.75;;;20.51;35.51
22753;BME280;11543;43.144;24.684;2023-04-02T13:23:48;97933.88;;;20.51;36.71
22753;BME280;11543;43.144;24.684;2023-04-02T13:26:22;97919.72;;;20.66;36.17
22753;BME280;11543;43.144;24.684;2023-04-02T13:31:34;97918.06;;;20.65;36.24
22753;BME280;11543;43.144;24.684;2023-04-02T13:33:59;97927.78;;;20.61;35.38
22753;BME280;11543;43.144;24.684;2023-04-02T13:36:25;97927.50;;;20.74;34.51
22753;BME280;11543;43.144;24.684;2023-04-02T13:38:54;97915.44;;;20.70;34.96
22753;BME280;11543;43.144;24.684;2023-04-02T13:41:25;97915.38;;;20.93;35.67
22753;BME280;11543;43.144;24.684;2023-04-02T13:43:54;97915.81;;;21.02;35.14
22753;BME280;11543;43.144;24.684;2023-04-02T13:46:23;97915.91;;;21.07;33.06
22753;BME280;11543;43.144;24.684;2023-04-02T13:48:50;97915.25;;;21.17;34.45
22753;BME280;11543;43.144;24.684;2023-04-02T13:51:17;97892.66;;;21.05;34.47
22753;BME280;11543;43.144;24.684;2023-04-02T13:53:46;97886.94;;;20.89;33.90
22753;BME280;11543;43.144;24.684;2023-04-02T13:56:12;97898.78;;;20.95;33.82
22753;BME280;11543;43.144;24.684;2023-04-02T13:58:38;97893.44;;;21.17;34.07
22753;BME280;11543;43.144;24.684;2023-04-02T14:01:04;97910.66;;;21.34;35.50
22753;BME280;11543;43.144;24.684;2023-04-02T14:03:29;97901.25;;;21.25;34.58
22753;BME280;11543;43.144;24.684;2023-04-02T14:05:59;97925.00;;;21.13;34.16
22753;BME280;11543;43.144;24.684;2023-04-02T14:11:27;97907.94;;;20.89;34.02
22753;BME280;11543;43.144;24.684;2023-04-02T14:14:15;97908.53;;;20.79;35.19
22753;BME280;11543;43.144;24.684;2023-04-02T14:20:01;97928.47;;;20.68;34.26
22753;BME280;11543;43.144;24.684;2023-04-02T14:25:42;97917.03;;;20.94;34.61
22753;BME280;11543;43.144;24.684;2023-04-02T14:31:02;97909.19;;;20.58;33.44
22753;BME280;11543;43.144;24.684;2023-04-02T14:45:55;97920.31;;;20.68;34.25
22753;BME280;11543;43.144;24.684;2023-04-02T14:50:53;97901.03;;;20.58;34.98
22753;BME280;11543;43.144;24.684;2023-04-02T14:53:29;97895.28;;;20.71;34.53
22753;BME280;11543;43.144;24.684;2023-04-02T14:56:00;97915.63;;;20.80;34.62
22753;BME280;11543;43.144;24.684;2023-04-02T14:58:33;97921.13;;;20.68;34.37
22753;BME280;11543;43.144;24.684;2023-04-02T15:01:09;97922.69;;;20.64;34.07
22753;BME280;11543;43.144;24.684;2023-04-02T15:06:26;97922.13;;;20.51;34.01
22753;BME280;11543;43.144;24.684;2023-04-02T15:09:12;97913.84;;;20.46;34.98
22753;BME280;11543;43.144;24.684;2023-04-02T15:14:45;97920.00;;;20.53;34.12
22753;BME280;11543;43.144;24.684;2023-04-02T15:17:12;97902.00;;;20.52;33.71
22753;BME280;11543;43.144;24.684;2023-04-02T15:19:38;97904.13;;;20.50;34.69
22753;BME280;11543;43.144;24.684;2023-04-02T15:22:30;97932.09;;;20.45;34.17
22753;BME280;11543;43.144;24.684;2023-04-02T15:25:16;97927.38;;;20.41;34.60
22753;BME280;11543;43.144;24.684;2023-04-02T15:30:44;97926.91;;;20.44;34.97
22753;BME280;11543;43.144;24.684;2023-04-02T15:33:36;97934.25;;;20.43;35.00
22753;BME280;11543;43.144;24.684;2023-04-02T15:36:26;97929.00;;;20.53;34.40
22753;BME280;11543;43.144;24.684;2023-04-02T15:39:29;97935.66;;;20.46;34.74
22753;BME280;11543;43.144;24.684;2023-04-02T15:44:43;97938.50;;;20.27;33.59
22753;BME280;11543;43.144;24.684;2023-04-02T15:53:27;97960.03;;;19.70;34.50
22753;BME280;11543;43.144;24.684;2023-04-02T16:09:14;97953.88;;;18.92;36.86
22753;BME280;11543;43.144;24.684;2023-04-02T16:11:42;97975.06;;;19.01;36.86
22753;BME280;11543;43.144;24.684;2023-04-02T16:14:29;97956.66;;;18.85;36.44
22753;BME280;11543;43.144;24.684;2023-04-02T16:17:22;97971.91;;;18.86;37.34
22753;BME280;11543;43.144;24.684;2023-04-02T16:22:49;97956.97;;;18.59;37.62
22753;BME280;11543;43.144;24.684;2023-04-02T16:25:19;97969.50;;;18.60;37.18
22753;BME280;11543;43.144;24.684;2023-04-02T16:27:58;97965.66;;;18.49;37.86
22753;BME280;11543;43.144;24.684;2023-04-02T16:34:21;97971.31;;;18.29;37.93
22753;BME280;11543;43.144;24.684;2023-04-02T16:42:47;97993.91;;;18.05;38.60
22753;BME280;11543;43.144;24.684;2023-04-02T16:52:03;97992.66;;;17.51;39.62
22753;BME280;11543;43.144;24.684;2023-04-02T17:08:03;98014.22;;;17.01;40.97
22753;BME280;11543;43.144;24.684;2023-04-02T17:11:32;98005.06;;;16.96;40.99
22753;BME280;11543;43.144;24.684;2023-04-02T17:14:10;98019.22;;;17.04;41.46
22753;BME280;11543;43.144;24.684;2023-04-02T17:19:39;98036.38;;;16.85;41.81
22753;BME280;11543;43.144;24.684;2023-04-02T17:22:40;98012.28;;;16.70;41.93
22753;BME280;11543;43.144;24.684;2023-04-02T17:25:20;98020.59;;;16.75;42.30
22753;BME280;11543;43.144;24.684;2023-04-02T17:27:51;98022.91;;;16.72;42.41
22753;BME280;11543;43.144;24.684;2023-04-02T17:30:28;98042.88;;;16.77;42.29
22753;BME280;11543;43.144;24.684;2023-04-02T17:33:01;98043.94;;;16.63;42.63
22753;BME280;11543;43.144;24.684;2023-04-02T17:38:22;98044.38;;;16.67;42.87
22753;BME280;11543;43.144;24.684;2023-04-02T17:56:22;98055.63;;;16.50;42.81
22753;BME280;11543;43.144;24.684;2023-04-02T18:09:51;98087.31;;;15.97;43.95
22753;BME280;11543;43.144;24.684;2023-04-02T18:23:53;98111.69;;;15.29;46.16
22753;BME280;11543;43.144;24.684;2023-04-02T18:32:30;98138.28;;;14.78;47.67
22753;BME280;11543;43.144;24.684;2023-04-02T18:38:22;98150.28;;;15.10;47.14
22753;BME280;11543;43.144;24.684;2023-04-02T18:41:25;98157.38;;;15.18;47.17
22753;BME280;11543;43.144;24.684;2023-04-02T18:46:58;98175.03;;;14.79;48.35
22753;BME280;11543;43.144;24.684;2023-04-02T18:49:34;98172.16;;;14.81;48.41
22753;BME280;11543;43.144;24.684;2023-04-02T18:52:24;98168.41;;;14.82;48.22
22753;BME280;11543;43.144;24.684;2023-04-02T18:55:23;98172.25;;;15.01;47.75
22753;BME280;11543;43.144;24.684;2023-04-02T18:58:04;98169.25;;;14.82;47.77
22753;BME280;11543;43.144;24.684;2023-04-02T19:00:38;98169.28;;;14.89;47.89
22753;BME280;11543;43.144;24.684;2023-04-02T19:03:14;98182.59;;;14.90;48.23
22753;BME280;11543;43.144;24.684;2023-04-02T19:05:43;98191.75;;;14.96;48.29
22753;BME280;11543;43.144;24.684;2023-04-02T19:08:23;98187.63;;;15.00;48.39
22753;BME280;11543;43.144;24.684;2023-04-02T19:11:01;98183.03;;;14.94;48.40
22753;BME280;11543;43.144;24.684;2023-04-02T19:13:29;98189.28;;;15.01;48.40
22753;BME280;11543;43.144;24.684;2023-04-02T19:41:07;98223.09;;;14.62;50.01
22753;BME280;11543;43.144;24.684;2023-04-02T19:43:40;98215.91;;;14.48;50.33
22753;BME280;11543;43.144;24.684;2023-04-02T19:46:05;98209.94;;;14.31;50.23
22753;BME280;11543;43.144;24.684;2023-04-02T19:48:41;98226.44;;;14.22;51.03